createdAt,value
2022-12-18T00:01:22.781Z,100395.97
2022-12-18T00:03:50.275Z,100397.69
2022-12-18T00:06:17.625Z,100401.13
2022-12-18T00:08:45.621Z,100397.78
2022-12-18T00:11:14.751Z,100397.69
2022-12-18T00:13:42.497Z,100403.75
2022-12-18T00:16:15.453Z,100396.88
2022-12-18T00:18:42.610Z,100407.06
2022-12-18T00:21:11.500Z,100408.03
2022-12-18T00:23:39.429Z,100409.81
2022-12-18T00:26:08.633Z,100414.09
2022-12-18T00:28:35.341Z,100419.19
2022-12-18T00:31:07.164Z,100426.06
2022-12-18T00:33:34.297Z,100411.56
2022-12-18T00:36:13.053Z,100414.94
2022-12-18T00:38:39.883Z,100412.34
2022-12-18T00:41:08.717Z,100415.78
2022-12-18T00:43:36.436Z,100415.66
2022-12-18T00:46:03.462Z,100419.94
2022-12-18T00:48:30.542Z,100419.94
2022-12-18T00:50:57.318Z,100425.03
2022-12-18T00:53:24.101Z,100428.53
2022-12-18T00:55:50.757Z,100426.81
2022-12-18T00:58:17.976Z,100417.44
2022-12-18T01:00:45.159Z,100416.72
2022-12-18T01:03:15.377Z,100424.34
2022-12-18T01:05:42.963Z,100429.44
2022-12-18T01:08:09.726Z,100433.69
2022-12-18T01:10:36.465Z,100433.66
2022-12-18T01:13:03.229Z,100424.31
2022-12-18T01:15:30.051Z,100432.03
2022-12-18T01:17:56.765Z,100435.47
2022-12-18T01:20:23.524Z,100437.13
2022-12-18T01:22:50.353Z,100443.13
2022-12-18T01:25:17.087Z,100455.09
2022-12-18T01:27:43.872Z,100444.88
2022-12-18T01:30:11.329Z,100442.31
2022-12-18T01:32:38.052Z,100451.63
2022-12-18T01:35:05.516Z,100451.66
2022-12-18T01:37:32.250Z,100463.59
2022-12-18T01:39:58.997Z,100461.88
2022-12-18T01:42:26.742Z,100451.66
2022-12-18T01:45:24.882Z,100461.03
2022-12-18T01:48:00.473Z,100463.59
2022-12-18T01:50:41.983Z,100460.19
2022-12-18T01:53:14.948Z,100467.84
2022-12-18T01:55:44.702Z,100456.78
2022-12-18T01:58:11.469Z,100452.53
2022-12-18T02:03:19.513Z,100445.72
2022-12-18T02:05:51.845Z,100457.63
2022-12-18T02:08:23.837Z,100456.78
2022-12-18T02:11:16.938Z,100457.66
2022-12-18T02:13:54.756Z,100449.13
2022-12-18T02:16:57.133Z,100451.63
2022-12-18T02:19:52.074Z,100447.31
2022-12-18T02:22:57.008Z,100446.53
2022-12-18T02:26:21.899Z,100451.63
2022-12-18T02:29:07.242Z,100437.97
2022-12-18T02:31:39.234Z,100431.16
2022-12-18T02:34:08.038Z,100440.53
2022-12-18T02:36:36.640Z,100444.81
2022-12-18T02:39:04.029Z,100443.16
2022-12-18T02:41:31.164Z,100445.72
2022-12-18T02:44:03.180Z,100441.44
2022-12-18T02:46:36.201Z,100445.69
2022-12-18T02:49:11.215Z,100444.81
2022-12-18T02:52:22.309Z,100449.94
2022-12-18T02:54:53.281Z,100443.06
2022-12-18T02:57:46.177Z,100439.63
2022-12-18T03:00:18.090Z,100436.16
2022-12-18T03:02:54.793Z,100435.41
2022-12-18T03:05:24.399Z,100436.28
2022-12-18T03:07:58.418Z,100444.78
2022-12-18T03:10:31.431Z,100448.19
2022-12-18T03:13:10.933Z,100448.19
2022-12-18T03:15:40.513Z,100443.03
2022-12-18T03:18:15.075Z,100451.56
2022-12-18T03:20:43.831Z,100441.38
2022-12-18T03:23:14.215Z,100449.84
2022-12-18T03:25:43.867Z,100444.72
2022-12-18T03:28:14.506Z,100456.63
2022-12-18T03:30:43.066Z,100445.56
2022-12-18T03:33:15.519Z,100449.72
2022-12-18T03:35:44.006Z,100441.97
2022-12-18T03:38:11.518Z,100441.09
2022-12-18T03:41:10.423Z,100430.78
2022-12-18T03:44:06.321Z,100445.31
2022-12-18T03:46:54.511Z,100424.97
2022-12-18T03:49:40.033Z,100422.41
2022-12-18T03:52:22.371Z,100419.00
2022-12-18T03:54:49.517Z,100424.75
2022-12-18T03:57:22.633Z,100427.44
2022-12-18T03:59:53.365Z,100429.09
2022-12-18T04:02:20.761Z,100436.69
2022-12-18T04:04:48.116Z,100434.06
2022-12-18T04:07:16.114Z,100432.41
2022-12-18T04:09:43.330Z,100440.00
2022-12-18T04:12:10.304Z,100440.09
2022-12-18T04:14:37.288Z,100441.03
2022-12-18T04:17:04.803Z,100431.47
2022-12-18T04:19:31.825Z,100437.50
2022-12-18T04:21:58.641Z,100434.16
2022-12-18T04:24:25.535Z,100440.22
2022-12-18T04:26:52.312Z,100445.16
2022-12-18T04:29:19.070Z,100444.25
2022-12-18T04:31:45.819Z,100450.13
2022-12-18T04:34:12.657Z,100450.16
2022-12-18T04:36:39.529Z,100449.22
2022-12-18T04:39:06.318Z,100450.91
2022-12-18T04:41:33.158Z,100441.66
2022-12-18T04:43:59.928Z,100432.25
2022-12-18T04:46:26.670Z,100443.34
2022-12-18T04:48:53.460Z,100452.75
2022-12-18T04:51:26.195Z,100446.75
2022-12-18T04:53:53.887Z,100454.38
2022-12-18T04:56:20.778Z,100450.84
2022-12-18T04:58:47.533Z,100465.31
2022-12-18T05:01:16.120Z,100461.06
2022-12-18T05:03:43.676Z,100458.47
2022-12-18T05:06:10.959Z,100465.22
2022-12-18T05:08:37.685Z,100453.97
2022-12-18T05:11:10.016Z,100453.97
2022-12-18T05:13:39.507Z,100460.81
2022-12-18T05:16:07.442Z,100455.50
2022-12-18T05:18:34.395Z,100459.91
2022-12-18T05:21:01.466Z,100458.22
2022-12-18T05:23:28.507Z,100460.75
2022-12-18T05:25:57.642Z,100459.75
2022-12-18T05:28:25.497Z,100463.22
2022-12-18T05:30:54.079Z,100476.00
2022-12-18T05:33:22.761Z,100476.84
2022-12-18T05:35:56.690Z,100485.34
2022-12-18T05:38:24.285Z,100480.28
2022-12-18T05:40:52.028Z,100490.44
2022-12-18T05:43:21.635Z,100489.59
2022-12-18T05:45:49.107Z,100484.44
2022-12-18T05:48:16.212Z,100488.81
2022-12-18T05:50:46.625Z,100486.22
2022-12-18T05:53:14.974Z,100476.09
2022-12-18T05:55:42.617Z,100476.88
2022-12-18T05:58:11.401Z,100485.72
2022-12-18T06:00:41.099Z,100488.19
2022-12-18T06:03:09.980Z,100481.56
2022-12-18T06:05:45.372Z,100483.59
2022-12-18T06:08:13.309Z,100481.16
2022-12-18T06:10:40.735Z,100478.63
2022-12-18T06:13:08.577Z,100476.09
2022-12-18T06:15:37.999Z,100471.81
2022-12-18T06:18:04.901Z,100477.78
2022-12-18T06:20:33.592Z,100470.03
2022-12-18T06:23:01.070Z,100476.63
2022-12-18T06:25:27.882Z,100475.63
2022-12-18T06:27:55.035Z,100471.31
2022-12-18T06:30:22.092Z,100468.84
2022-12-18T06:32:56.602Z,100470.47
2022-12-18T06:35:24.170Z,100469.53
2022-12-18T06:37:51.060Z,100468.25
2022-12-18T06:40:18.143Z,100469.88
2022-12-18T06:42:44.899Z,100470.28
2022-12-18T06:45:12.614Z,100472.06
2022-12-18T06:47:39.409Z,100483.06
2022-12-18T06:50:06.899Z,100488.25
2022-12-18T06:52:34.193Z,100475.44
2022-12-18T06:55:01.213Z,100465.41
2022-12-18T06:57:28.033Z,100466.16
2022-12-18T06:59:54.900Z,100475.72
2022-12-18T07:02:21.931Z,100479.59
2022-12-18T07:04:51.859Z,100480.56
2022-12-18T07:07:18.828Z,100482.84
2022-12-18T07:09:45.835Z,100494.78
2022-12-18T07:12:12.788Z,100499.88
2022-12-18T07:14:39.578Z,100500.84
2022-12-18T07:17:06.674Z,100500.75
2022-12-18T07:19:33.800Z,100498.97
2022-12-18T07:22:00.875Z,100509.22
2022-12-18T07:24:27.649Z,100513.38
2022-12-18T07:26:54.479Z,100517.47
2022-12-18T07:29:21.248Z,100518.50
2022-12-18T07:31:48.163Z,100518.41
2022-12-18T07:34:16.332Z,100514.22
2022-12-18T07:36:43.372Z,100524.56
2022-12-18T07:39:12.292Z,100528.91
2022-12-18T07:41:43.743Z,100524.47
2022-12-18T07:44:13.924Z,100528.81
2022-12-18T07:46:41.257Z,100538.69
2022-12-18T07:49:08.261Z,100534.78
2022-12-18T07:51:35.119Z,100541.41
2022-12-18T07:54:02.108Z,100537.75
2022-12-18T07:56:31.225Z,100533.72
2022-12-18T07:58:58.758Z,100533.56
2022-12-18T08:01:25.816Z,100547.97
2022-12-18T08:03:52.818Z,100544.56
2022-12-18T08:06:21.784Z,100537.59
2022-12-18T08:08:52.689Z,100531.59
2022-12-18T08:11:19.486Z,100527.63
2022-12-18T08:13:46.534Z,100533.47
2022-12-18T08:16:13.314Z,100529.56
2022-12-18T08:18:40.045Z,100522.84
2022-12-18T08:21:26.214Z,100526.25
2022-12-18T08:23:54.747Z,100523.78
2022-12-18T08:26:21.943Z,100520.97
2022-12-18T08:28:49.380Z,100517.78
2022-12-18T08:31:17.285Z,100516.25
2022-12-18T08:33:44.481Z,100517.19
2022-12-18T08:36:11.799Z,100515.75
2022-12-18T08:38:38.839Z,100510.63
2022-12-18T08:41:07.916Z,100521.72
2022-12-18T08:43:53.265Z,100516.75
2022-12-18T08:46:20.990Z,100517.03
2022-12-18T08:48:48.233Z,100518.09
2022-12-18T08:51:17.353Z,100505.97
2022-12-18T08:53:45.615Z,100506.09
2022-12-18T08:56:12.882Z,100502.81
2022-12-18T08:58:40.131Z,100493.56
2022-12-18T09:01:10.440Z,100495.34
2022-12-18T09:03:37.768Z,100497.94
2022-12-18T09:06:05.208Z,100482.69
2022-12-18T09:08:31.982Z,100480.19
2022-12-18T09:10:58.788Z,100480.06
2022-12-18T09:13:25.737Z,100487.69
2022-12-18T09:15:54.320Z,100475.84
2022-12-18T09:18:22.255Z,100481.84
2022-12-18T09:20:49.108Z,100474.25
2022-12-18T09:23:15.866Z,100476.88
2022-12-18T09:25:42.750Z,100472.66
2022-12-18T09:28:14.774Z,100463.34
2022-12-18T09:30:44.605Z,100474.38
2022-12-18T09:33:11.667Z,100468.38
2022-12-18T09:35:39.989Z,100471.81
2022-12-18T09:38:07.626Z,100465.97
2022-12-18T09:40:41.790Z,100458.31
2022-12-18T09:43:21.690Z,100455.75
2022-12-18T09:45:53.301Z,100461.78
2022-12-18T09:48:32.994Z,100464.41
2022-12-18T09:51:04.017Z,100460.16
2022-12-18T09:53:34.526Z,100449.97
2022-12-18T09:56:03.456Z,100454.25
2022-12-18T09:58:36.269Z,100459.34
2022-12-18T10:01:03.234Z,100449.97
2022-12-18T10:03:30.003Z,100449.06
2022-12-18T10:06:13.235Z,100448.22
2022-12-18T10:09:25.337Z,100460.16
2022-12-18T10:12:04.785Z,100452.41
2022-12-18T10:15:06.263Z,100445.56
2022-12-18T10:18:29.446Z,100442.97
2022-12-18T10:21:01.544Z,100441.31
2022-12-18T10:23:35.153Z,100456.56
2022-12-18T10:26:06.131Z,100448.00
2022-12-18T10:28:36.687Z,100436.84
2022-12-18T10:31:03.635Z,100431.66
2022-12-18T10:33:32.822Z,100425.66
2022-12-18T10:36:00.223Z,100423.03
2022-12-18T10:38:31.670Z,100425.47
2022-12-18T10:41:06.945Z,100428.94
2022-12-18T10:43:38.596Z,100432.34
2022-12-18T10:46:16.078Z,100433.06
2022-12-18T10:48:55.477Z,100432.09
2022-12-18T10:51:34.803Z,100431.00
2022-12-18T10:54:07.129Z,100429.13
2022-12-18T10:56:37.947Z,100424.75
2022-12-18T10:59:07.775Z,100424.56
2022-12-18T11:01:58.972Z,100436.97
2022-12-18T11:04:28.567Z,100433.53
2022-12-18T11:07:04.436Z,100431.84
2022-12-18T11:09:36.818Z,100431.03
2022-12-18T11:12:07.336Z,100432.63
2022-12-18T11:14:35.800Z,100425.72
2022-12-18T11:17:24.752Z,100425.63
2022-12-18T11:19:59.910Z,100415.22
2022-12-18T11:22:31.056Z,100408.44
2022-12-18T11:28:29.774Z,100395.16
2022-12-18T11:31:18.495Z,100374.66
2022-12-18T11:34:26.880Z,100364.28
2022-12-18T11:36:43.854Z,100364.53
2022-12-18T11:39:17.651Z,100363.50
2022-12-18T11:42:13.079Z,100363.06
2022-12-18T11:45:00.255Z,100356.97
2022-12-18T11:48:00.586Z,100356.91
2022-12-18T11:50:35.370Z,100352.72
2022-12-18T11:53:06.174Z,100347.53
2022-12-18T11:55:53.697Z,100343.69
2022-12-18T11:58:52.061Z,100342.03
2022-12-18T12:01:26.336Z,100359.94
2022-12-18T12:04:16.505Z,100360.81
2022-12-18T12:07:18.923Z,100364.13
2022-12-18T12:10:07.609Z,100369.00
2022-12-18T12:13:14.908Z,100362.75
2022-12-18T12:16:20.379Z,100350.91
2022-12-18T12:19:05.535Z,100345.59
2022-12-18T12:21:42.295Z,100335.31
2022-12-18T12:24:44.547Z,100328.38
2022-12-18T12:27:46.790Z,100321.53
2022-12-18T12:30:27.697Z,100308.47
2022-12-18T12:33:17.682Z,100313.44
2022-12-18T12:36:02.652Z,100298.72
2022-12-18T12:38:53.509Z,100308.06
2022-12-18T12:41:42.187Z,100304.78
2022-12-18T12:44:14.219Z,100297.81
2022-12-18T12:46:43.065Z,100293.50
2022-12-18T12:49:18.883Z,100291.78
2022-12-18T12:51:49.529Z,100287.31
2022-12-18T12:54:23.825Z,100285.63
2022-12-18T12:57:22.637Z,100288.59
2022-12-18T13:00:09.845Z,100292.06
2022-12-18T13:02:43.751Z,100276.53
2022-12-18T13:05:13.244Z,100272.22
2022-12-18T13:07:49.082Z,100276.47
2022-12-18T13:10:41.827Z,100269.69
2022-12-18T13:13:13.586Z,100266.19
2022-12-18T13:15:52.470Z,100260.03
2022-12-18T13:18:23.639Z,100253.03
2022-12-18T13:21:02.904Z,100259.03
2022-12-18T13:23:39.924Z,100274.31
2022-12-18T13:26:28.850Z,100277.66
2022-12-18T13:28:57.658Z,100281.03
2022-12-18T13:32:03.079Z,100269.81
2022-12-18T13:34:32.410Z,100265.31
2022-12-18T13:37:54.244Z,100262.97
2022-12-18T13:40:42.688Z,100255.28
2022-12-18T13:43:41.529Z,100249.16
2022-12-18T13:46:32.218Z,100254.25
2022-12-18T13:49:03.381Z,100255.91
2022-12-18T13:51:32.140Z,100257.00
2022-12-18T13:54:04.464Z,100260.44
2022-12-18T13:56:33.746Z,100270.72
2022-12-18T13:59:18.595Z,100281.91
2022-12-18T14:01:56.274Z,100281.72
2022-12-18T14:04:35.808Z,100293.69
2022-12-18T14:07:13.626Z,100292.78
2022-12-18T14:09:47.627Z,100294.38
2022-12-18T14:12:35.915Z,100297.19
2022-12-18T14:15:03.159Z,100291.06
2022-12-18T14:17:30.286Z,100277.19
2022-12-18T14:19:57.643Z,100271.78
2022-12-18T14:22:31.346Z,100267.19
2022-12-18T14:25:21.124Z,100260.38
2022-12-18T14:28:19.716Z,100271.63
2022-12-18T14:30:47.523Z,100269.16
2022-12-18T14:33:15.627Z,100274.44
2022-12-18T14:35:45.063Z,100281.53
2022-12-18T14:38:23.466Z,100271.22
2022-12-18T14:41:01.757Z,100265.88
2022-12-18T14:43:30.516Z,100251.13
2022-12-18T14:45:57.773Z,100263.00
2022-12-18T14:48:35.404Z,100268.34
2022-12-18T14:51:08.096Z,100263.22
2022-12-18T14:53:38.181Z,100258.06
2022-12-18T14:56:34.219Z,100259.38
2022-12-18T14:59:04.595Z,100259.31
2022-12-18T15:01:37.066Z,100259.63
2022-12-18T15:04:05.330Z,100264.84
2022-12-18T15:06:38.328Z,100269.84
2022-12-18T15:09:22.577Z,100251.88
2022-12-18T15:11:49.534Z,100260.69
2022-12-18T15:14:42.203Z,100254.69
2022-12-18T15:17:20.445Z,100265.97
2022-12-18T15:19:48.637Z,100267.16
2022-12-18T15:22:22.769Z,100267.75
2022-12-18T15:24:50.329Z,100268.84
2022-12-18T15:27:25.889Z,100260.38
2022-12-18T15:30:11.831Z,100259.56
2022-12-18T15:32:40.221Z,100259.31
2022-12-18T15:35:26.361Z,100265.00
2022-12-18T15:37:53.599Z,100256.47
2022-12-18T15:40:22.929Z,100254.84
2022-12-18T15:43:08.444Z,100254.25
2022-12-18T15:45:35.239Z,100245.78
2022-12-18T15:48:02.142Z,100245.63
2022-12-18T15:50:29.521Z,100246.19
2022-12-18T15:52:57.700Z,100235.34
2022-12-18T15:55:44.309Z,100238.00
2022-12-18T15:58:12.847Z,100244.16
2022-12-18T16:00:41.463Z,100251.09
2022-12-18T16:03:10.500Z,100262.03
2022-12-18T16:05:41.068Z,100262.00
2022-12-18T16:08:08.092Z,100263.00
2022-12-18T16:10:35.920Z,100256.69
2022-12-18T16:13:02.767Z,100245.50
2022-12-18T16:15:29.655Z,100247.34
2022-12-18T16:17:56.460Z,100236.94
2022-12-18T16:20:23.852Z,100238.78
2022-12-18T16:22:51.207Z,100236.25
2022-12-18T16:25:23.884Z,100226.88
2022-12-18T16:27:51.112Z,100226.75
2022-12-18T16:30:21.828Z,100235.34
2022-12-18T16:32:48.650Z,100226.00
2022-12-18T16:35:17.341Z,100231.09
2022-12-18T16:37:44.705Z,100228.28
2022-12-18T16:40:14.197Z,100232.56
2022-12-18T16:42:42.955Z,100218.00
2022-12-18T16:45:12.613Z,100211.06
2022-12-18T16:47:39.443Z,100219.97
2022-12-18T16:50:07.272Z,100227.56
2022-12-18T16:52:35.058Z,100225.91
2022-12-18T16:55:05.392Z,100227.69
2022-12-18T16:57:32.162Z,100229.09
2022-12-18T17:00:04.670Z,100218.63
2022-12-18T17:02:32.699Z,100211.28
2022-12-18T17:05:00.279Z,100218.09
2022-12-18T17:07:28.604Z,100211.19
2022-12-18T17:09:56.215Z,100203.41
2022-12-18T17:12:23.843Z,100201.72
2022-12-18T17:14:50.700Z,100203.66
2022-12-18T17:17:22.641Z,100211.94
2022-12-18T17:19:50.831Z,100206.69
2022-12-18T17:22:17.532Z,100193.06
2022-12-18T17:24:44.350Z,100194.72
2022-12-18T17:27:11.150Z,100184.56
2022-12-18T17:29:41.335Z,100194.88
2022-12-18T17:32:12.061Z,100191.34
2022-12-18T17:34:39.004Z,100193.09
2022-12-18T17:37:05.923Z,100213.63
2022-12-18T17:39:33.998Z,100225.56
2022-12-18T17:42:01.674Z,100206.69
2022-12-18T17:44:28.482Z,100192.88
2022-12-18T17:46:55.701Z,100185.13
2022-12-18T17:49:22.548Z,100210.16
2022-12-18T17:51:49.384Z,100221.97
2022-12-18T17:54:16.289Z,100218.47
2022-12-18T17:56:43.297Z,100202.38
2022-12-18T17:59:10.195Z,100203.16
2022-12-18T18:01:43.741Z,100197.44
2022-12-18T18:04:11.805Z,100194.59
2022-12-18T18:06:39.076Z,100192.94
2022-12-18T18:09:06.667Z,100197.94
2022-12-18T18:12:05.204Z,100189.41
2022-12-18T18:14:32.412Z,100180.72
2022-12-18T18:17:04.108Z,100189.56
2022-12-18T18:19:32.121Z,100195.28
2022-12-18T18:21:58.859Z,100206.69
2022-12-18T18:24:26.184Z,100204.88
2022-12-18T18:26:53.171Z,100208.47
2022-12-18T18:29:23.883Z,100211.69
2022-12-18T18:31:53.587Z,100197.81
2022-12-18T18:34:31.716Z,100201.53
2022-12-18T18:36:58.793Z,100193.72
2022-12-18T18:39:26.161Z,100194.81
2022-12-18T18:41:52.875Z,100195.44
2022-12-18T18:44:24.759Z,100208.25
2022-12-18T18:46:55.500Z,100188.56
2022-12-18T18:49:24.301Z,100184.06
2022-12-18T18:51:51.106Z,100171.16
2022-12-18T18:54:17.990Z,100169.47
2022-12-18T18:57:19.027Z,100159.34
2022-12-18T18:59:32.273Z,100166.25
2022-12-18T19:02:00.775Z,100159.16
2022-12-18T19:04:33.132Z,100155.31
2022-12-18T19:07:00.178Z,100148.19
2022-12-18T19:09:27.930Z,100149.78
2022-12-18T19:12:14.637Z,100156.97
2022-12-18T19:14:41.592Z,100157.69
2022-12-18T19:17:08.850Z,100157.53
2022-12-18T19:19:35.884Z,100142.13
2022-12-18T19:22:02.789Z,100144.47
2022-12-18T19:24:29.537Z,100139.50
2022-12-18T19:26:58.100Z,100133.25
2022-12-18T19:29:25.633Z,100134.16
2022-12-18T19:31:53.003Z,100125.66
2022-12-18T19:34:19.815Z,100127.50
2022-12-18T19:36:46.758Z,100137.31
2022-12-18T19:39:16.608Z,100139.03
2022-12-18T19:41:43.694Z,100138.22
2022-12-18T19:44:19.990Z,100140.28
2022-12-18T19:46:50.861Z,100129.19
2022-12-18T19:49:18.427Z,100141.84
2022-12-18T19:51:45.626Z,100128.97
2022-12-18T19:54:17.038Z,100128.03
2022-12-18T19:56:44.316Z,100123.97
2022-12-18T19:59:11.055Z,100131.56
2022-12-18T20:01:37.987Z,100132.31
2022-12-18T20:04:05.343Z,100138.50
2022-12-18T20:06:46.236Z,100142.78
2022-12-18T20:09:13.019Z,100144.28
2022-12-18T20:11:42.178Z,100142.72
2022-12-18T20:14:11.135Z,100141.00
2022-12-18T20:16:38.361Z,100144.41
2022-12-18T20:19:05.718Z,100146.13
2022-12-18T20:21:32.565Z,100140.94
2022-12-18T20:24:00.302Z,100143.66
2022-12-18T20:26:27.194Z,100145.22
2022-12-18T20:28:55.162Z,100135.81
2022-12-18T20:31:22.680Z,100148.44
2022-12-18T20:33:49.917Z,100139.25
2022-12-18T20:36:22.577Z,100136.97
2022-12-18T20:38:56.367Z,100142.84
2022-12-18T20:41:24.954Z,100140.28
2022-12-18T20:43:52.155Z,100139.41
2022-12-18T20:46:19.295Z,100129.94
2022-12-18T20:48:46.249Z,100128.94
2022-12-18T20:51:16.311Z,100126.97
2022-12-18T20:53:43.657Z,100117.50
2022-12-18T20:56:21.904Z,100113.19
2022-12-18T20:58:50.146Z,100115.38
2022-12-18T21:01:20.759Z,100115.34
2022-12-18T21:03:48.261Z,100102.41
2022-12-18T21:06:16.953Z,100105.03
2022-12-18T21:08:44.171Z,100112.59
2022-12-18T21:11:49.024Z,100122.69
2022-12-18T21:14:18.158Z,100103.25
2022-12-18T21:16:45.669Z,100110.06
2022-12-18T21:19:14.095Z,100109.47
2022-12-18T21:21:41.395Z,100113.78
2022-12-18T21:24:09.984Z,100113.00
2022-12-18T21:26:43.393Z,100119.78
2022-12-18T21:29:14.315Z,100124.72
2022-12-18T21:31:41.632Z,100110.00
2022-12-18T21:34:10.226Z,100103.25
2022-12-18T21:36:37.079Z,100101.81
2022-12-18T21:39:04.219Z,100092.31
2022-12-18T21:41:49.429Z,100092.25
2022-12-18T21:44:18.797Z,100089.56
2022-12-18T21:46:54.531Z,100090.41
2022-12-18T21:49:23.972Z,100095.69
2022-12-18T21:51:52.721Z,100098.94
2022-12-18T21:54:20.286Z,100100.91
2022-12-18T21:56:57.982Z,100110.22
2022-12-18T21:59:39.611Z,100104.09
2022-12-18T22:02:11.025Z,100104.47
2022-12-18T22:04:37.960Z,100107.19
2022-12-18T22:07:06.250Z,100083.88
2022-12-18T22:09:33.144Z,100095.03
2022-12-18T22:12:00.570Z,100099.53
2022-12-18T22:14:27.509Z,100099.47
2022-12-18T22:16:56.385Z,100093.63
2022-12-18T22:19:25.426Z,100097.84
2022-12-18T22:21:52.844Z,100097.84
2022-12-18T22:24:25.092Z,100090.59
2022-12-18T22:27:01.693Z,100085.47
2022-12-18T22:29:47.588Z,100080.56
2022-12-18T22:32:21.430Z,100073.50
2022-12-18T22:35:07.210Z,100076.19
2022-12-18T22:37:36.996Z,100074.66
2022-12-18T22:40:05.956Z,100074.53
2022-12-18T22:42:34.003Z,100063.22
2022-12-18T22:45:00.990Z,100060.78
2022-12-18T22:47:30.007Z,100062.38
2022-12-18T22:49:58.079Z,100067.34
2022-12-18T22:52:25.302Z,100057.84
2022-12-18T22:54:53.239Z,100051.94
2022-12-18T22:57:21.891Z,100060.31
2022-12-18T22:59:49.649Z,100054.09
2022-12-18T23:02:18.150Z,100060.19
2022-12-18T23:04:45.277Z,100061.31
2022-12-18T23:07:12.594Z,100048.50
2022-12-18T23:09:39.876Z,100052.69
2022-12-18T23:12:07.155Z,100050.91
2022-12-18T23:14:34.134Z,100049.28
2022-12-18T23:17:00.996Z,100047.94
2022-12-18T23:19:27.880Z,100046.16
2022-12-18T23:21:57.748Z,100041.72
2022-12-18T23:24:28.945Z,100030.28
2022-12-18T23:26:59.343Z,100034.66
2022-12-18T23:29:26.162Z,100035.75
2022-12-18T23:31:53.018Z,100036.25
2022-12-18T23:34:19.849Z,100032.09
2022-12-18T23:36:47.478Z,100032.06
2022-12-18T23:39:29.398Z,100029.34
2022-12-18T23:41:59.536Z,100024.19
2022-12-18T23:44:26.625Z,100024.41
2022-12-18T23:46:53.510Z,100016.59
2022-12-18T23:49:20.384Z,100009.97
2022-12-18T23:51:47.120Z,100018.28
2022-12-18T23:54:13.888Z,100010.34
2022-12-18T23:56:40.760Z,100011.19
2022-12-18T23:59:07.492Z,100003.47
